createdAt,value
2023-04-03T00:02:41.811Z,92.89
2023-04-03T00:05:27.435Z,92.96
2023-04-03T00:08:12.886Z,92.96
2023-04-03T00:10:58.580Z,93.66
2023-04-03T00:13:44.066Z,94.21
2023-04-03T00:16:29.738Z,94.26
2023-04-03T00:19:15.700Z,94.35
2023-04-03T00:22:00.722Z,94.96
2023-04-03T00:24:45.849Z,95.39
2023-04-03T00:27:30.944Z,95.32
2023-04-03T00:30:19.325Z,95.37
2023-04-03T00:33:04.622Z,95.75
2023-04-03T00:35:50.470Z,95.83
2023-04-03T00:38:35.984Z,96.13
2023-04-03T00:41:21.127Z,96.42
2023-04-03T00:44:28.982Z,97.04
2023-04-03T00:47:17.566Z,97.14
2023-04-03T00:50:03.280Z,97.38
2023-04-03T00:52:50.005Z,98.13
2023-04-03T00:55:37.151Z,98.29
2023-04-03T00:58:29.324Z,98.60
2023-04-03T01:01:18.573Z,99.13
2023-04-03T01:04:05.151Z,99.22
2023-04-03T01:06:50.466Z,99.21
2023-04-03T01:09:36.347Z,99.20
2023-04-03T01:12:25.482Z,99.48
2023-04-03T01:15:17.314Z,99.38
2023-04-03T01:18:03.788Z,99.31
2023-04-03T01:21:04.254Z,99.58
2023-04-03T01:24:09.331Z,99.35
2023-04-03T01:26:54.337Z,99.83
2023-04-03T01:29:41.114Z,100.00
2023-04-03T01:32:26.358Z,99.88
2023-04-03T01:35:11.655Z,100.00
2023-04-03T01:37:56.825Z,100.00
2023-04-03T01:40:41.749Z,100.00
2023-04-03T01:43:27.103Z,100.00
2023-04-03T01:46:12.450Z,100.00
2023-04-03T01:48:57.568Z,100.00
2023-04-03T01:51:42.699Z,100.00
2023-04-03T01:54:27.532Z,100.00
2023-04-03T01:57:14.052Z,100.00
2023-04-03T01:59:59.158Z,100.00
2023-04-03T02:02:44.300Z,100.00
2023-04-03T02:05:29.598Z,100.00
2023-04-03T02:08:15.379Z,100.00
2023-04-03T02:11:00.372Z,100.00
2023-04-03T02:13:45.443Z,100.00
2023-04-03T02:16:31.766Z,100.00
2023-04-03T02:19:17.247Z,100.00
2023-04-03T02:22:04.182Z,100.00
2023-04-03T02:24:49.315Z,100.00
2023-04-03T02:27:34.196Z,100.00
2023-04-03T02:30:19.225Z,100.00
2023-04-03T02:33:04.419Z,100.00
2023-04-03T02:35:54.241Z,100.00
2023-04-03T02:38:39.596Z,100.00
2023-04-03T02:41:26.498Z,100.00
2023-04-03T02:44:12.485Z,100.00
2023-04-03T02:46:57.322Z,100.00
2023-04-03T02:49:44.585Z,100.00
2023-04-03T02:52:29.529Z,100.00
2023-04-03T02:55:16.931Z,100.00
2023-04-03T02:58:01.958Z,100.00
2023-04-03T03:00:47.143Z,100.00
2023-04-03T03:03:32.117Z,100.00
2023-04-03T03:06:18.192Z,100.00
2023-04-03T03:09:04.552Z,100.00
2023-04-03T03:11:49.469Z,100.00
2023-04-03T03:14:34.489Z,100.00
2023-04-03T03:17:19.764Z,100.00
2023-04-03T03:20:06.820Z,100.00
2023-04-03T03:22:52.069Z,100.00
2023-04-03T03:25:41.306Z,100.00
2023-04-03T03:28:26.637Z,100.00
2023-04-03T03:31:12.187Z,100.00
2023-04-03T03:33:57.088Z,100.00
2023-04-03T03:36:42.268Z,100.00
2023-04-03T03:39:27.723Z,100.00
2023-04-03T03:42:13.006Z,100.00
2023-04-03T03:44:58.192Z,100.00
2023-04-03T03:47:43.485Z,100.00
2023-04-03T03:50:28.329Z,100.00
2023-04-03T03:53:13.187Z,100.00
2023-04-03T03:55:58.042Z,100.00
2023-04-03T03:58:43.141Z,100.00
2023-04-03T04:01:28.405Z,100.00
2023-04-03T04:04:13.354Z,100.00
2023-04-03T04:06:58.365Z,100.00
2023-04-03T04:09:43.525Z,100.00
2023-04-03T04:12:28.769Z,100.00
2023-04-03T04:15:13.894Z,100.00
2023-04-03T04:17:59.180Z,100.00
2023-04-03T04:20:46.610Z,100.00
2023-04-03T04:23:31.612Z,100.00
2023-04-03T04:26:16.885Z,100.00
2023-04-03T04:29:01.964Z,100.00
2023-04-03T04:31:47.038Z,100.00
2023-04-03T04:34:32.419Z,100.00
2023-04-03T04:37:17.585Z,100.00
2023-04-03T04:40:02.900Z,100.00
2023-04-03T04:42:48.197Z,100.00
2023-04-03T04:45:33.679Z,100.00
2023-04-03T04:48:18.488Z,100.00
2023-04-03T04:51:03.994Z,100.00
2023-04-03T04:53:49.123Z,100.00
2023-04-03T04:56:34.270Z,100.00
2023-04-03T04:59:20.661Z,100.00
2023-04-03T05:02:07.289Z,100.00
2023-04-03T05:04:53.285Z,100.00
2023-04-03T05:07:38.534Z,100.00
2023-04-03T05:10:23.656Z,100.00
2023-04-03T05:13:08.965Z,100.00
2023-04-03T05:15:54.124Z,100.00
2023-04-03T05:18:39.321Z,100.00
2023-04-03T05:21:25.947Z,100.00
2023-04-03T05:24:10.957Z,100.00
2023-04-03T05:26:55.988Z,100.00
2023-04-03T05:29:45.225Z,100.00
2023-04-03T05:32:30.504Z,100.00
2023-04-03T05:35:16.048Z,100.00
2023-04-03T05:38:01.541Z,100.00
2023-04-03T05:40:47.276Z,100.00
2023-04-03T05:43:33.648Z,100.00
2023-04-03T05:46:20.320Z,100.00
2023-04-03T05:49:05.924Z,100.00
2023-04-03T05:51:52.366Z,100.00
2023-04-03T05:54:37.241Z,100.00
2023-04-03T05:57:23.179Z,100.00
2023-04-03T06:00:10.617Z,100.00
2023-04-03T06:02:56.229Z,100.00
2023-04-03T06:05:42.605Z,100.00
2023-04-03T06:08:27.917Z,100.00
2023-04-03T06:11:13.332Z,100.00
2023-04-03T06:13:58.558Z,100.00
2023-04-03T06:16:44.633Z,100.00
2023-04-03T06:19:30.145Z,100.00
2023-04-03T06:22:15.559Z,100.00
2023-04-03T06:25:00.669Z,100.00
2023-04-03T06:27:46.487Z,100.00
2023-04-03T06:30:31.389Z,100.00
2023-04-03T06:33:16.656Z,100.00
2023-04-03T06:36:06.320Z,100.00
2023-04-03T06:38:51.724Z,100.00
2023-04-03T06:41:37.315Z,100.00
2023-04-03T06:44:22.604Z,100.00
2023-04-03T06:47:07.635Z,100.00
2023-04-03T06:49:52.910Z,100.00
2023-04-03T06:52:38.336Z,100.00
2023-04-03T06:55:23.744Z,100.00
2023-04-03T06:58:09.016Z,100.00
2023-04-03T07:00:54.044Z,100.00
2023-04-03T07:03:41.140Z,100.00
2023-04-03T07:06:29.207Z,100.00
2023-04-03T07:09:15.451Z,100.00
2023-04-03T07:12:01.061Z,100.00
2023-04-03T07:14:46.105Z,100.00
2023-04-03T07:17:31.201Z,100.00
2023-04-03T07:20:16.268Z,100.00
2023-04-03T07:23:04.283Z,100.00
2023-04-03T07:25:50.568Z,100.00
2023-04-03T07:28:37.529Z,100.00
2023-04-03T07:31:22.861Z,100.00
2023-04-03T07:34:07.946Z,100.00
2023-04-03T07:36:53.277Z,100.00
2023-04-03T07:39:38.490Z,100.00
2023-04-03T07:42:23.513Z,100.00
2023-04-03T07:45:09.171Z,100.00
2023-04-03T07:47:54.149Z,100.00
2023-04-03T07:50:41.845Z,100.00
2023-04-03T07:53:26.785Z,100.00
2023-04-03T07:56:11.884Z,100.00
2023-04-03T07:58:56.911Z,100.00
2023-04-03T08:01:42.378Z,100.00
2023-04-03T08:04:27.944Z,100.00
2023-04-03T08:07:12.946Z,100.00
2023-04-03T08:09:58.273Z,100.00
2023-04-03T08:12:43.323Z,100.00
2023-04-03T08:15:28.770Z,100.00
2023-04-03T08:18:16.207Z,100.00
2023-04-03T08:21:01.370Z,100.00
2023-04-03T08:23:49.945Z,100.00
2023-04-03T08:26:35.901Z,100.00
2023-04-03T08:29:22.301Z,100.00
2023-04-03T08:32:07.464Z,100.00
2023-04-03T08:34:52.727Z,100.00
2023-04-03T08:37:38.634Z,100.00
2023-04-03T08:40:24.401Z,100.00
2023-04-03T08:43:33.689Z,100.00
2023-04-03T08:46:23.576Z,100.00
2023-04-03T08:49:17.285Z,100.00
2023-04-03T08:52:09.549Z,100.00
2023-04-03T08:55:02.232Z,100.00
2023-04-03T08:57:49.988Z,100.00
2023-04-03T09:00:58.198Z,100.00
2023-04-03T09:03:43.437Z,100.00
2023-04-03T09:06:36.364Z,99.77
2023-04-03T09:09:42.697Z,98.51
2023-04-03T09:12:37.664Z,97.57
2023-04-03T09:15:37.898Z,97.29
2023-04-03T09:18:31.688Z,96.20
2023-04-03T09:21:33.020Z,93.38
2023-04-03T09:24:18.960Z,87.59
2023-04-03T09:27:11.099Z,85.01
2023-04-03T09:29:58.245Z,84.00
2023-04-03T09:32:48.240Z,82.24
2023-04-03T09:35:47.488Z,80.96
2023-04-03T09:38:34.907Z,79.75
2023-04-03T09:41:20.202Z,77.73
2023-04-03T09:44:22.193Z,76.88
2023-04-03T09:47:27.737Z,76.83
2023-04-03T09:50:15.972Z,76.64
2023-04-03T09:53:07.070Z,74.46
2023-04-03T09:55:52.535Z,74.63
2023-04-03T09:58:50.371Z,74.36
2023-04-03T10:01:40.110Z,73.35
2023-04-03T10:04:25.435Z,73.86
2023-04-03T10:07:36.198Z,74.10
2023-04-03T10:10:26.877Z,74.04
2023-04-03T10:13:21.066Z,74.19
2023-04-03T10:16:15.594Z,74.28
2023-04-03T10:19:39.300Z,73.83
2023-04-03T10:22:30.466Z,74.86
2023-04-03T10:25:39.839Z,73.80
2023-04-03T10:28:25.058Z,74.00
2023-04-03T10:31:26.484Z,73.58
2023-04-03T10:34:30.066Z,73.58
2023-04-03T10:37:25.239Z,72.84
2023-04-03T10:40:36.095Z,72.83
2023-04-03T10:43:37.616Z,72.57
2023-04-03T10:46:22.764Z,72.32
2023-04-03T10:49:32.343Z,72.53
2023-04-03T10:52:47.146Z,70.87
2023-04-03T10:55:42.946Z,69.79
2023-04-03T10:58:40.314Z,70.42
2023-04-03T11:01:36.266Z,70.69
2023-04-03T11:04:25.239Z,70.27
2023-04-03T11:07:19.370Z,70.46
2023-04-03T11:10:14.836Z,71.17
2023-04-03T11:13:13.307Z,68.81
2023-04-03T11:15:59.217Z,67.61
2023-04-03T11:18:51.944Z,65.75
2023-04-03T11:21:49.958Z,64.30
2023-04-03T11:24:39.455Z,64.37
2023-04-03T11:27:25.247Z,63.67
2023-04-03T11:30:19.550Z,63.05
2023-04-03T11:33:23.143Z,63.46
2023-04-03T11:36:25.444Z,62.18
2023-04-03T11:39:33.106Z,60.03
2023-04-03T11:42:40.072Z,59.63
2023-04-03T11:45:28.469Z,57.66
2023-04-03T11:48:24.965Z,58.77
2023-04-03T11:51:13.737Z,58.07
2023-04-03T11:54:45.162Z,56.15
2023-04-03T11:57:47.012Z,55.79
2023-04-03T12:00:44.510Z,56.05
2023-04-03T12:03:32.710Z,54.54
2023-04-03T12:06:18.051Z,54.85
2023-04-03T12:09:23.252Z,54.67
2023-04-03T12:12:40.545Z,53.57
2023-04-03T12:15:50.230Z,53.15
2023-04-03T12:18:51.341Z,53.74
2023-04-03T12:22:03.728Z,51.79
2023-04-03T12:24:51.666Z,51.20
2023-04-03T12:27:43.211Z,51.62
2023-04-03T12:30:31.340Z,51.24
2023-04-03T12:33:38.420Z,50.46
2023-04-03T12:37:01.660Z,49.61
2023-04-03T12:39:56.561Z,48.50
2023-04-03T12:42:52.283Z,47.67
2023-04-03T12:46:09.528Z,46.79
2023-04-03T12:48:57.651Z,46.96
2023-04-03T12:51:45.728Z,46.80
2023-04-03T12:54:37.487Z,47.18
2023-04-03T12:57:26.382Z,46.40
2023-04-03T13:00:36.395Z,46.75
2023-04-03T13:03:27.857Z,46.16
2023-04-03T13:06:25.325Z,43.81
2023-04-03T13:09:31.280Z,43.78
2023-04-03T13:12:17.933Z,44.63
2023-04-03T13:15:21.198Z,44.26
2023-04-03T13:18:06.650Z,43.34
2023-04-03T13:20:52.965Z,44.01
2023-04-03T13:23:41.506Z,43.41
2023-04-03T13:26:30.278Z,43.49
2023-04-03T13:29:34.442Z,43.36
2023-04-03T13:32:25.633Z,41.99
2023-04-03T13:35:41.592Z,42.39
2023-04-03T13:38:32.465Z,42.93
2023-04-03T13:41:32.931Z,42.24
2023-04-03T13:44:19.176Z,42.43
2023-04-03T13:47:13.310Z,44.41
2023-04-03T13:50:13.648Z,42.91
2023-04-03T13:53:12.345Z,42.67
2023-04-03T13:56:03.618Z,41.88
2023-04-03T13:59:01.929Z,44.35
2023-04-03T14:01:52.671Z,42.56
2023-04-03T14:04:37.895Z,41.90
2023-04-03T14:07:23.258Z,42.65
2023-04-03T14:10:08.734Z,42.96
2023-04-03T14:12:53.814Z,44.15
2023-04-03T14:15:39.465Z,43.89
2023-04-03T14:18:25.030Z,44.50
2023-04-03T14:21:13.236Z,45.07
2023-04-03T14:23:58.516Z,44.45
2023-04-03T14:26:44.787Z,44.60
2023-04-03T14:29:29.860Z,45.37
2023-04-03T14:32:17.060Z,45.82
2023-04-03T14:35:04.259Z,45.01
2023-04-03T14:37:49.890Z,44.08
2023-04-03T14:40:35.630Z,44.92
2023-04-03T14:43:23.165Z,45.08
2023-04-03T14:46:23.599Z,44.07
2023-04-03T14:49:19.105Z,43.37
2023-04-03T14:52:04.737Z,44.09
2023-04-03T14:54:50.853Z,43.71
2023-04-03T14:57:36.255Z,43.55
2023-04-03T15:00:23.162Z,43.99
2023-04-03T15:03:17.736Z,44.23
2023-04-03T15:06:03.246Z,44.59
2023-04-03T15:08:48.870Z,44.14
2023-04-03T15:11:34.628Z,50.29
2023-04-03T15:14:30.025Z,44.99
2023-04-03T15:17:23.716Z,44.61
2023-04-03T15:20:15.178Z,44.59
2023-04-03T15:23:02.229Z,44.55
2023-04-03T15:25:49.682Z,44.83
2023-04-03T15:28:38.630Z,45.07
2023-04-03T15:31:24.102Z,45.35
2023-04-03T15:34:09.141Z,44.88
2023-04-03T15:36:54.219Z,44.77
2023-04-03T15:39:39.102Z,45.58
2023-04-03T15:42:24.043Z,45.95
2023-04-03T15:45:10.413Z,46.51
2023-04-03T15:47:55.442Z,47.07
2023-04-03T15:50:40.945Z,47.92
2023-04-03T15:53:26.195Z,48.13
2023-04-03T15:56:12.855Z,49.26
2023-04-03T15:58:57.742Z,50.78
2023-04-03T16:01:43.680Z,50.11
2023-04-03T16:04:28.971Z,49.73
2023-04-03T16:07:14.392Z,49.30
2023-04-03T16:09:59.779Z,50.73
2023-04-03T16:12:45.832Z,51.00
2023-04-03T16:15:32.114Z,50.84
2023-04-03T16:18:19.332Z,52.03
2023-04-03T16:21:04.594Z,52.14
2023-04-03T16:23:50.367Z,52.19
2023-04-03T16:26:35.801Z,52.48
2023-04-03T16:29:21.128Z,53.76
2023-04-03T16:32:06.414Z,54.86
2023-04-03T16:34:52.594Z,56.40
2023-04-03T16:37:39.842Z,55.66
2023-04-03T16:40:25.399Z,56.47
2023-04-03T16:43:11.385Z,56.32
2023-04-03T16:45:56.307Z,57.07
2023-04-03T16:48:41.485Z,55.69
2023-04-03T16:51:26.450Z,56.24
2023-04-03T16:54:14.439Z,56.76
2023-04-03T16:56:59.673Z,57.07
2023-04-03T16:59:44.757Z,55.90
2023-04-03T17:02:30.308Z,55.94
2023-04-03T17:05:15.495Z,55.88
2023-04-03T17:08:01.986Z,56.58
2023-04-03T17:10:48.743Z,57.18
2023-04-03T17:13:35.434Z,57.84
2023-04-03T17:16:21.735Z,58.86
2023-04-03T17:19:07.366Z,59.22
2023-04-03T17:21:52.896Z,59.45
2023-04-03T17:24:38.211Z,58.84
2023-04-03T17:27:23.816Z,58.61
2023-04-03T17:30:09.398Z,59.59
2023-04-03T17:32:54.491Z,60.33
2023-04-03T17:35:39.736Z,61.16
2023-04-03T17:38:25.240Z,61.28
2023-04-03T17:41:10.579Z,60.67
2023-04-03T17:43:56.956Z,62.20
2023-04-03T17:46:42.081Z,61.95
2023-04-03T17:49:27.241Z,62.26
2023-04-03T17:52:12.269Z,62.56
2023-04-03T17:54:57.670Z,62.71
2023-04-03T17:57:43.970Z,62.72
2023-04-03T18:00:28.916Z,62.93
2023-04-03T18:03:13.915Z,62.77
2023-04-03T18:06:03.307Z,62.96
2023-04-03T18:08:51.328Z,63.02
2023-04-03T18:11:36.619Z,63.33
2023-04-03T18:14:25.644Z,63.54
2023-04-03T18:17:11.311Z,63.77
2023-04-03T18:19:56.608Z,64.36
2023-04-03T18:22:42.399Z,64.08
2023-04-03T18:25:27.486Z,63.21
2023-04-03T18:28:13.268Z,63.37
2023-04-03T18:31:00.206Z,63.29
2023-04-03T18:33:45.455Z,63.55
2023-04-03T18:36:30.607Z,63.41
2023-04-03T18:39:15.602Z,63.47
2023-04-03T18:42:06.670Z,63.46
2023-04-03T18:44:56.839Z,63.96
2023-04-03T18:47:41.907Z,64.28
2023-04-03T18:50:26.712Z,65.04
2023-04-03T18:53:12.077Z,64.89
2023-04-03T18:55:57.076Z,65.93
2023-04-03T18:58:42.233Z,65.86
2023-04-03T19:01:27.976Z,65.51
2023-04-03T19:04:13.911Z,66.05
2023-04-03T19:06:59.889Z,66.07
2023-04-03T19:09:45.406Z,66.42
2023-04-03T19:12:30.950Z,66.79
2023-04-03T19:15:19.326Z,66.89
2023-04-03T19:18:04.875Z,66.95
2023-04-03T19:20:50.389Z,72.26
2023-04-03T19:23:36.064Z,76.43
2023-04-03T19:26:21.546Z,70.40
2023-04-03T19:29:06.948Z,68.55
2023-04-03T19:31:52.495Z,68.12
2023-04-03T19:34:37.630Z,68.39
2023-04-03T19:37:24.910Z,68.13
2023-04-03T19:40:10.278Z,67.94
2023-04-03T19:42:55.573Z,68.31
2023-04-03T19:45:41.716Z,68.83
2023-04-03T19:48:27.176Z,68.54
2023-04-03T19:51:12.705Z,68.67
2023-04-03T19:53:57.946Z,69.07
2023-04-03T19:56:43.053Z,69.39
2023-04-03T19:59:28.305Z,68.80
2023-04-03T20:02:13.404Z,69.13
2023-04-03T20:04:58.563Z,69.58
2023-04-03T20:07:43.411Z,69.78
2023-04-03T20:10:28.340Z,69.66
2023-04-03T20:13:13.921Z,69.77
2023-04-03T20:16:04.810Z,70.68
2023-04-03T20:18:52.273Z,70.88
2023-04-03T20:21:37.520Z,70.64
2023-04-03T20:24:22.700Z,70.59
2023-04-03T20:27:07.700Z,70.77
2023-04-03T20:29:52.955Z,71.08
2023-04-03T20:32:37.965Z,70.75
2023-04-03T20:35:23.289Z,71.17
2023-04-03T20:38:08.720Z,71.58
2023-04-03T20:40:54.101Z,71.42
2023-04-03T20:43:40.198Z,71.82
2023-04-03T20:46:38.242Z,71.81
2023-04-03T20:49:33.879Z,71.75
2023-04-03T20:52:18.856Z,71.48
2023-04-03T20:55:04.927Z,71.78
2023-04-03T20:57:54.560Z,71.93
2023-04-03T21:00:41.130Z,71.72
2023-04-03T21:03:29.374Z,71.99
2023-04-03T21:06:52.416Z,72.32
2023-04-03T21:10:15.746Z,72.67
2023-04-03T21:13:38.509Z,73.07
2023-04-03T21:16:23.358Z,73.55
2023-04-03T21:19:15.773Z,73.52
2023-04-03T21:22:01.539Z,73.67
2023-04-03T21:24:46.454Z,73.88
2023-04-03T21:27:32.077Z,74.12
2023-04-03T21:30:17.740Z,74.53
2023-04-03T21:33:03.142Z,74.79
2023-04-03T21:35:48.672Z,74.67
2023-04-03T21:38:36.118Z,74.51
2023-04-03T21:41:22.010Z,74.31
2023-04-03T21:44:07.730Z,74.44
2023-04-03T21:46:55.827Z,74.26
2023-04-03T21:49:41.573Z,74.40
2023-04-03T21:52:27.473Z,75.19
2023-04-03T21:55:12.574Z,75.51
2023-04-03T21:57:58.170Z,76.44
2023-04-03T22:00:43.339Z,76.85
2023-04-03T22:03:28.718Z,76.81
2023-04-03T22:06:16.275Z,76.55
2023-04-03T22:09:01.473Z,76.30
2023-04-03T22:11:46.762Z,75.93
2023-04-03T22:14:32.021Z,75.70
2023-04-03T22:17:17.055Z,75.61
2023-04-03T22:20:01.938Z,76.03
2023-04-03T22:22:50.616Z,75.90
2023-04-03T22:25:36.308Z,75.80
2023-04-03T22:28:21.812Z,75.75
2023-04-03T22:31:08.073Z,75.57
2023-04-03T22:33:54.586Z,75.35
2023-04-03T22:36:42.921Z,75.65
2023-04-03T22:39:28.007Z,75.66
2023-04-03T22:42:12.902Z,76.03
2023-04-03T22:44:59.271Z,75.90
2023-04-03T22:47:44.398Z,76.41
2023-04-03T22:50:30.209Z,76.80
2023-04-03T22:53:15.989Z,77.16
2023-04-03T22:56:03.519Z,77.43
2023-04-03T22:58:48.456Z,77.61
2023-04-03T23:01:33.529Z,77.74
2023-04-03T23:04:18.859Z,77.81
2023-04-03T23:07:03.884Z,78.35
2023-04-03T23:09:48.785Z,78.42
2023-04-03T23:12:38.380Z,78.95
2023-04-03T23:15:23.495Z,79.04
2023-04-03T23:18:08.780Z,78.90
2023-04-03T23:20:55.042Z,78.83
2023-04-03T23:23:40.699Z,79.50
2023-04-03T23:26:26.415Z,79.74
2023-04-03T23:29:11.481Z,79.91
2023-04-03T23:31:56.722Z,80.45
2023-04-03T23:34:42.102Z,80.63
2023-04-03T23:37:27.369Z,81.46
2023-04-03T23:40:12.712Z,81.90
2023-04-03T23:42:57.684Z,82.66
2023-04-03T23:45:45.036Z,83.11
2023-04-03T23:48:30.521Z,83.34
2023-04-03T23:51:16.212Z,83.59
2023-04-03T23:54:00.997Z,84.00
2023-04-03T23:56:46.430Z,84.11
2023-04-03T23:59:31.286Z,84.37
